createdAt,value
2022-11-02T00:00:55.583Z,11.47
2022-11-02T00:03:22.419Z,11.38
2022-11-02T00:05:49.260Z,11.45
2022-11-02T00:08:16.094Z,11.44
2022-11-02T00:10:42.976Z,11.44
2022-11-02T00:13:09.778Z,11.32
2022-11-02T00:15:37.344Z,11.37
2022-11-02T00:18:10.711Z,11.44
2022-11-02T00:20:40.302Z,11.45
2022-11-02T00:23:07.864Z,11.46
2022-11-02T00:25:45.345Z,11.39
2022-11-02T00:28:13.286Z,11.35
2022-11-02T00:30:40.210Z,11.46
2022-11-02T00:33:07.133Z,11.50
2022-11-02T00:35:35.529Z,11.46
2022-11-02T00:38:02.766Z,11.35
2022-11-02T00:40:29.919Z,11.47
2022-11-02T00:42:56.771Z,11.54
2022-11-02T00:45:23.651Z,11.60
2022-11-02T00:47:51.464Z,11.50
2022-11-02T00:50:18.401Z,11.72
2022-11-02T00:52:45.281Z,11.62
2022-11-02T00:55:12.581Z,11.61
2022-11-02T00:57:40.433Z,11.59
2022-11-02T01:00:10.083Z,11.51
2022-11-02T01:02:37.934Z,11.71
2022-11-02T01:05:06.904Z,11.70
2022-11-02T01:07:34.071Z,11.71
2022-11-02T01:10:00.937Z,11.72
2022-11-02T01:12:27.768Z,11.84
2022-11-02T01:14:54.574Z,11.74
2022-11-02T01:17:21.595Z,11.75
2022-11-02T01:19:51.186Z,11.74
2022-11-02T01:22:18.167Z,11.69
2022-11-02T01:24:45.001Z,11.60
2022-11-02T01:27:11.846Z,11.67
2022-11-02T01:29:38.664Z,11.71
2022-11-02T01:32:05.848Z,11.61
2022-11-02T01:34:32.700Z,11.73
2022-11-02T01:36:59.611Z,11.58
2022-11-02T01:39:26.390Z,11.59
2022-11-02T01:41:58.179Z,11.63
2022-11-02T01:44:32.903Z,11.63
2022-11-02T01:47:07.607Z,11.67
2022-11-02T01:49:38.959Z,11.74
2022-11-02T01:52:30.848Z,11.67
2022-11-02T01:55:21.976Z,11.58
2022-11-02T01:57:58.016Z,11.71
2022-11-02T02:00:24.852Z,11.59
2022-11-02T02:03:10.742Z,11.63
2022-11-02T02:05:43.220Z,11.55
2022-11-02T02:08:12.463Z,11.54
2022-11-02T02:10:39.615Z,11.45
2022-11-02T02:13:07.662Z,11.59
2022-11-02T02:16:06.447Z,11.57
2022-11-02T02:18:59.725Z,11.56
2022-11-02T02:22:24.754Z,11.49
2022-11-02T02:25:48.013Z,11.39
2022-11-02T02:29:04.736Z,11.50
2022-11-02T02:31:42.743Z,11.27
2022-11-02T02:34:21.701Z,11.25
2022-11-02T02:37:24.130Z,11.16
2022-11-02T02:40:04.628Z,11.25
2022-11-02T02:42:42.189Z,11.19
2022-11-02T02:45:22.766Z,11.17
2022-11-02T02:48:01.857Z,11.29
2022-11-02T02:50:35.952Z,11.23
2022-11-02T02:53:06.695Z,11.30
2022-11-02T02:55:40.255Z,11.24
2022-11-02T02:58:12.955Z,11.13
2022-11-02T03:00:40.262Z,11.24
2022-11-02T03:03:20.388Z,11.24
2022-11-02T03:06:16.734Z,11.06
2022-11-02T03:09:08.398Z,11.19
2022-11-02T03:11:49.182Z,11.12
2022-11-02T03:14:33.052Z,11.13
2022-11-02T03:17:19.881Z,11.09
2022-11-02T03:20:26.547Z,11.21
2022-11-02T03:23:22.545Z,11.13
2022-11-02T03:26:18.697Z,11.18
2022-11-02T03:28:59.780Z,11.07
2022-11-02T03:31:40.393Z,11.18
2022-11-02T03:34:37.144Z,11.24
2022-11-02T03:37:14.127Z,11.26
2022-11-02T03:39:52.245Z,11.33
2022-11-02T03:42:27.172Z,11.20
2022-11-02T03:45:23.396Z,11.47
2022-11-02T03:47:56.281Z,11.43
2022-11-02T03:50:24.250Z,11.30
2022-11-02T03:53:01.876Z,11.14
2022-11-02T03:55:40.787Z,11.24
2022-11-02T03:58:11.547Z,11.33
2022-11-02T04:00:47.712Z,11.30
2022-11-02T04:03:15.259Z,11.30
2022-11-02T04:05:42.117Z,11.39
2022-11-02T04:08:21.849Z,11.36
2022-11-02T04:11:11.926Z,11.31
2022-11-02T04:13:57.036Z,11.37
2022-11-02T04:16:26.618Z,11.31
2022-11-02T04:19:13.766Z,11.41
2022-11-02T04:21:41.227Z,11.49
2022-11-02T04:24:27.692Z,11.57
2022-11-02T04:26:54.594Z,11.46
2022-11-02T04:29:21.419Z,11.58
2022-11-02T04:31:48.202Z,11.63
2022-11-02T04:34:15.035Z,11.65
2022-11-02T04:36:41.872Z,11.71
2022-11-02T04:39:08.694Z,11.77
2022-11-02T04:41:41.518Z,11.83
2022-11-02T04:44:17.338Z,11.84
2022-11-02T04:46:49.058Z,11.98
2022-11-02T04:49:18.901Z,11.91
2022-11-02T04:51:49.848Z,11.88
2022-11-02T04:54:16.861Z,11.82
2022-11-02T04:56:43.881Z,11.72
2022-11-02T04:59:10.832Z,11.78
2022-11-02T05:01:40.384Z,11.72
2022-11-02T05:04:07.300Z,11.57
2022-11-02T05:06:34.361Z,11.64
2022-11-02T05:09:01.184Z,11.69
2022-11-02T05:11:33.484Z,11.72
2022-11-02T05:14:03.511Z,11.68
2022-11-02T05:16:30.340Z,11.64
2022-11-02T05:18:58.078Z,11.44
2022-11-02T05:21:24.891Z,11.45
2022-11-02T05:23:59.292Z,11.40
2022-11-02T05:26:26.087Z,11.54
2022-11-02T05:28:53.005Z,11.59
2022-11-02T05:31:19.843Z,11.60
2022-11-02T05:33:46.763Z,11.55
2022-11-02T05:36:13.580Z,11.60
2022-11-02T05:38:40.440Z,11.72
2022-11-02T05:41:07.269Z,11.66
2022-11-02T05:43:34.153Z,11.62
2022-11-02T05:46:03.031Z,11.72
2022-11-02T05:48:33.427Z,11.55
2022-11-02T05:51:03.608Z,11.80
2022-11-02T05:53:33.791Z,11.77
2022-11-02T05:56:02.403Z,11.79
2022-11-02T05:58:30.241Z,11.87
2022-11-02T06:01:01.673Z,11.78
2022-11-02T06:03:29.494Z,11.81
2022-11-02T06:06:07.610Z,11.77
2022-11-02T06:08:36.321Z,11.80
2022-11-02T06:11:11.885Z,11.65
2022-11-02T06:13:39.831Z,11.79
2022-11-02T06:16:09.801Z,11.71
2022-11-02T06:18:38.084Z,11.68
2022-11-02T06:21:05.380Z,11.63
2022-11-02T06:23:32.194Z,11.77
2022-11-02T06:26:00.275Z,11.73
2022-11-02T06:28:28.151Z,11.81
2022-11-02T06:30:55.474Z,11.64
2022-11-02T06:33:22.675Z,11.77
2022-11-02T06:35:52.319Z,11.98
2022-11-02T06:38:19.210Z,11.95
2022-11-02T06:40:57.498Z,11.94
2022-11-02T06:43:25.385Z,11.88
2022-11-02T06:45:57.385Z,11.84
2022-11-02T06:48:28.638Z,11.93
2022-11-02T06:50:58.389Z,12.10
2022-11-02T06:53:25.450Z,12.07
2022-11-02T06:55:57.105Z,12.08
2022-11-02T06:58:24.886Z,12.07
2022-11-02T07:01:02.336Z,12.02
2022-11-02T07:03:30.706Z,12.09
2022-11-02T07:05:57.839Z,12.10
2022-11-02T07:08:25.561Z,12.21
2022-11-02T07:10:52.420Z,12.35
2022-11-02T07:13:19.466Z,12.81
2022-11-02T07:15:46.552Z,13.34
2022-11-02T07:18:14.152Z,13.62
2022-11-02T07:20:40.952Z,13.47
2022-11-02T07:23:09.112Z,13.82
2022-11-02T07:25:36.371Z,14.20
2022-11-02T07:28:04.107Z,15.02
2022-11-02T07:30:34.507Z,15.29
2022-11-02T07:33:01.903Z,15.84
2022-11-02T07:35:29.081Z,16.77
2022-11-02T07:38:01.745Z,17.50
2022-11-02T07:40:30.385Z,17.89
2022-11-02T07:42:58.157Z,18.63
2022-11-02T07:45:26.019Z,19.64
2022-11-02T07:47:52.901Z,21.15
2022-11-02T07:50:22.848Z,22.91
2022-11-02T07:52:55.177Z,24.58
2022-11-02T07:55:25.148Z,26.18
2022-11-02T07:58:01.669Z,27.55
2022-11-02T08:00:32.880Z,28.67
2022-11-02T08:03:02.224Z,29.59
2022-11-02T08:05:31.413Z,30.32
2022-11-02T08:07:58.354Z,31.22
2022-11-02T08:10:26.071Z,31.75
2022-11-02T08:12:53.529Z,32.75
2022-11-02T08:15:20.346Z,31.74
2022-11-02T08:17:47.315Z,32.66
2022-11-02T08:20:14.333Z,32.70
2022-11-02T08:22:41.458Z,32.92
2022-11-02T08:25:08.834Z,34.22
2022-11-02T08:27:35.741Z,35.81
2022-11-02T08:30:02.994Z,36.09
2022-11-02T08:32:29.857Z,37.91
2022-11-02T08:34:56.643Z,38.73
2022-11-02T08:37:23.459Z,38.76
2022-11-02T08:39:50.325Z,39.09
2022-11-02T08:42:17.147Z,38.70
2022-11-02T08:44:43.971Z,39.05
2022-11-02T08:47:10.853Z,39.84
2022-11-02T08:49:37.674Z,39.89
2022-11-02T08:52:04.572Z,39.90
2022-11-02T08:54:31.421Z,40.17
2022-11-02T08:56:58.317Z,41.18
2022-11-02T08:59:25.737Z,42.13
2022-11-02T09:01:52.571Z,42.76
2022-11-02T09:04:19.516Z,42.30
2022-11-02T09:06:46.312Z,42.76
2022-11-02T09:09:13.160Z,43.02
2022-11-02T09:11:39.946Z,43.50
2022-11-02T09:14:07.783Z,43.93
2022-11-02T09:16:40.174Z,43.91
2022-11-02T09:19:08.215Z,44.26
2022-11-02T09:21:35.043Z,43.96
2022-11-02T09:24:01.899Z,43.63
2022-11-02T09:26:28.767Z,44.20
2022-11-02T09:28:55.541Z,44.75
2022-11-02T09:31:22.352Z,43.20
2022-11-02T09:33:49.127Z,43.62
2022-11-02T09:36:15.950Z,44.34
2022-11-02T09:38:42.882Z,44.88
2022-11-02T09:41:31.294Z,45.22
2022-11-02T09:44:14.705Z,44.28
2022-11-02T09:46:46.198Z,43.71
2022-11-02T09:49:17.694Z,44.35
2022-11-02T09:51:56.439Z,44.91
2022-11-02T09:54:34.314Z,43.90
2022-11-02T09:57:21.796Z,45.06
2022-11-02T09:59:49.774Z,45.70
2022-11-02T10:02:44.135Z,45.49
2022-11-02T10:05:38.936Z,45.66
2022-11-02T10:08:34.744Z,45.49
2022-11-02T10:11:16.057Z,43.63
2022-11-02T10:14:21.769Z,44.19
2022-11-02T10:16:57.312Z,42.51
2022-11-02T10:19:27.800Z,39.03
2022-11-02T10:21:58.457Z,33.13
2022-11-02T10:24:38.454Z,29.61
2022-11-02T10:27:20.276Z,27.04
2022-11-02T10:30:11.401Z,25.42
2022-11-02T10:32:40.631Z,24.03
2022-11-02T10:36:12.021Z,22.53
2022-11-02T10:39:11.970Z,21.35
2022-11-02T10:41:56.762Z,20.85
2022-11-02T10:44:50.954Z,20.40
2022-11-02T10:47:40.128Z,19.88
2022-11-02T10:50:45.270Z,19.64
2022-11-02T10:53:39.543Z,18.94
2022-11-02T10:56:22.164Z,18.93
2022-11-02T10:59:00.818Z,18.66
2022-11-02T11:01:30.307Z,18.37
2022-11-02T11:04:11.038Z,18.31
2022-11-02T11:06:41.140Z,18.34
2022-11-02T11:09:15.850Z,18.17
2022-11-02T11:11:56.113Z,18.07
2022-11-02T11:20:34.638Z,17.62
2022-11-02T11:23:20.440Z,17.70
2022-11-02T11:26:05.259Z,17.64
2022-11-02T11:28:53.028Z,17.74
2022-11-02T11:31:20.545Z,17.77
2022-11-02T11:34:01.646Z,17.73
2022-11-02T11:36:34.550Z,17.54
2022-11-02T11:39:22.200Z,17.57
2022-11-02T11:41:49.049Z,17.50
2022-11-02T11:44:16.271Z,17.55
2022-11-02T11:46:53.339Z,17.44
2022-11-02T11:49:48.155Z,17.49
2022-11-02T11:52:31.220Z,17.53
2022-11-02T11:55:02.037Z,17.54
2022-11-02T11:57:32.501Z,17.65
2022-11-02T12:00:04.773Z,17.70
2022-11-02T12:02:40.965Z,17.55
2022-11-02T12:05:12.108Z,17.59
2022-11-02T12:08:19.339Z,17.42
2022-11-02T12:11:03.817Z,17.28
2022-11-02T12:14:08.045Z,17.37
2022-11-02T12:16:56.413Z,17.42
2022-11-02T12:19:51.726Z,17.52
2022-11-02T12:22:53.646Z,17.40
2022-11-02T12:25:45.670Z,17.38
2022-11-02T12:28:24.383Z,17.31
2022-11-02T12:31:15.666Z,17.38
2022-11-02T12:34:12.438Z,17.34
2022-11-02T12:37:09.808Z,17.27
2022-11-02T12:39:44.864Z,17.16
2022-11-02T12:42:35.791Z,17.27
2022-11-02T12:45:34.816Z,17.20
2022-11-02T12:48:06.112Z,17.29
2022-11-02T12:51:05.266Z,17.41
2022-11-02T12:54:12.060Z,17.35
2022-11-02T12:56:55.240Z,17.34
2022-11-02T12:59:42.183Z,17.36
2022-11-02T13:02:30.272Z,17.19
2022-11-02T13:05:05.350Z,17.25
2022-11-02T13:08:02.616Z,17.29
2022-11-02T13:10:42.042Z,17.28
2022-11-02T13:13:17.641Z,17.28
2022-11-02T13:15:46.572Z,17.23
2022-11-02T13:18:38.216Z,17.23
2022-11-02T13:21:05.690Z,17.20
2022-11-02T13:23:46.139Z,17.08
2022-11-02T13:26:30.098Z,17.09
2022-11-02T13:29:30.001Z,17.14
2022-11-02T13:32:15.173Z,17.20
2022-11-02T13:34:46.116Z,17.26
2022-11-02T13:37:40.097Z,17.11
2022-11-02T13:40:26.470Z,17.04
2022-11-02T13:45:41.066Z,17.15
2022-11-02T13:48:54.173Z,17.00
2022-11-02T13:51:39.879Z,16.91
2022-11-02T13:54:22.602Z,16.98
2022-11-02T13:56:55.327Z,16.96
2022-11-02T13:59:29.840Z,16.94
2022-11-02T14:02:00.349Z,16.93
2022-11-02T14:04:30.712Z,16.88
2022-11-02T14:07:01.286Z,16.98
2022-11-02T14:09:36.162Z,16.99
2022-11-02T14:12:20.907Z,16.79
2022-11-02T14:15:13.494Z,16.90
2022-11-02T14:18:09.531Z,16.78
2022-11-02T14:20:40.506Z,16.78
2022-11-02T14:23:18.375Z,16.82
2022-11-02T14:25:53.594Z,16.78
2022-11-02T14:28:23.237Z,16.74
2022-11-02T14:31:05.246Z,16.71
2022-11-02T14:33:53.353Z,16.64
2022-11-02T14:36:20.205Z,16.54
2022-11-02T14:39:07.110Z,16.56
2022-11-02T14:42:12.585Z,16.75
2022-11-02T14:45:26.351Z,16.78
2022-11-02T14:48:05.202Z,16.71
2022-11-02T14:50:32.918Z,16.68
2022-11-02T14:53:17.755Z,16.68
2022-11-02T14:55:56.101Z,16.61
2022-11-02T14:58:32.417Z,16.62
2022-11-02T15:01:02.722Z,16.47
2022-11-02T15:03:34.019Z,16.38
2022-11-02T15:06:25.486Z,16.37
2022-11-02T15:09:00.822Z,16.35
2022-11-02T15:11:57.609Z,16.27
2022-11-02T15:14:36.278Z,16.12
2022-11-02T15:17:24.576Z,16.12
2022-11-02T15:20:09.868Z,16.15
2022-11-02T15:22:42.848Z,16.11
2022-11-02T15:25:09.679Z,16.09
2022-11-02T15:27:40.740Z,16.18
2022-11-02T15:30:14.683Z,16.03
2022-11-02T15:32:49.096Z,15.96
2022-11-02T15:35:30.449Z,15.85
2022-11-02T15:38:16.910Z,15.80
2022-11-02T15:40:59.158Z,15.75
2022-11-02T15:43:50.956Z,15.70
2022-11-02T15:46:48.702Z,15.60
2022-11-02T15:50:09.134Z,15.53
2022-11-02T15:53:22.252Z,15.46
2022-11-02T15:56:21.291Z,15.37
2022-11-02T15:59:08.927Z,15.28
2022-11-02T16:01:35.969Z,15.20
2022-11-02T16:04:06.145Z,15.14
2022-11-02T16:06:41.014Z,15.10
2022-11-02T16:09:28.640Z,15.02
2022-11-02T16:12:12.857Z,14.94
2022-11-02T16:14:40.748Z,14.91
2022-11-02T16:17:26.170Z,14.82
2022-11-02T16:20:15.727Z,14.81
2022-11-02T16:22:54.697Z,14.76
2022-11-02T16:25:45.504Z,14.78
2022-11-02T16:28:20.901Z,14.72
2022-11-02T16:31:18.588Z,14.58
2022-11-02T16:33:52.660Z,14.52
2022-11-02T16:36:39.774Z,14.41
2022-11-02T16:39:16.409Z,14.38
2022-11-02T16:41:50.665Z,14.33
2022-11-02T16:44:34.252Z,14.31
2022-11-02T16:47:07.227Z,14.29
2022-11-02T16:49:54.209Z,14.16
2022-11-02T16:52:33.613Z,14.16
2022-11-02T16:55:00.964Z,14.11
2022-11-02T16:57:31.200Z,14.02
2022-11-02T17:00:07.807Z,13.99
2022-11-02T17:02:41.069Z,14.01
2022-11-02T17:05:23.922Z,14.00
2022-11-02T17:08:04.805Z,13.91
2022-11-02T17:10:36.057Z,13.68
2022-11-02T17:13:08.906Z,13.76
2022-11-02T17:15:37.416Z,13.74
2022-11-02T17:18:15.272Z,13.68
2022-11-02T17:20:42.151Z,13.73
2022-11-02T17:23:30.747Z,13.65
2022-11-02T17:26:22.541Z,13.61
2022-11-02T17:28:57.289Z,13.61
2022-11-02T17:31:25.691Z,13.70
2022-11-02T17:33:53.784Z,13.54
2022-11-02T17:36:21.907Z,13.51
2022-11-02T17:38:48.726Z,13.51
2022-11-02T17:41:37.715Z,13.51
2022-11-02T17:44:14.176Z,13.52
2022-11-02T17:46:44.677Z,13.54
2022-11-02T17:49:12.983Z,13.50
2022-11-02T17:51:41.932Z,13.43
2022-11-02T17:54:13.843Z,13.43
2022-11-02T17:56:41.408Z,13.45
2022-11-02T17:59:08.397Z,13.45
2022-11-02T18:01:35.455Z,13.37
2022-11-02T18:04:02.435Z,13.32
2022-11-02T18:06:29.735Z,13.23
2022-11-02T18:09:11.569Z,13.31
2022-11-02T18:11:38.365Z,13.28
2022-11-02T18:14:05.215Z,13.27
2022-11-02T18:16:32.281Z,13.13
2022-11-02T18:18:59.170Z,13.21
2022-11-02T18:21:25.990Z,13.21
2022-11-02T18:23:52.804Z,13.11
2022-11-02T18:26:19.670Z,13.13
2022-11-02T18:28:46.448Z,13.13
2022-11-02T18:31:13.223Z,13.00
2022-11-02T18:33:43.478Z,13.00
2022-11-02T18:36:11.264Z,13.03
2022-11-02T18:38:38.288Z,13.03
2022-11-02T18:41:26.892Z,13.00
2022-11-02T18:44:02.177Z,13.04
2022-11-02T18:46:30.727Z,13.06
2022-11-02T18:48:58.430Z,12.90
2022-11-02T18:51:25.681Z,12.94
2022-11-02T18:53:55.862Z,12.94
2022-11-02T18:56:22.972Z,12.92
2022-11-02T18:58:51.982Z,12.95
2022-11-02T19:01:20.840Z,12.83
2022-11-02T19:03:59.029Z,12.80
2022-11-02T19:06:46.980Z,12.86
2022-11-02T19:09:18.688Z,12.90
2022-11-02T19:11:53.411Z,12.85
2022-11-02T19:14:22.385Z,12.82
2022-11-02T19:16:49.540Z,12.65
2022-11-02T19:19:16.350Z,12.71
2022-11-02T19:21:43.328Z,12.78
2022-11-02T19:24:11.267Z,12.69
2022-11-02T19:26:38.646Z,12.63
2022-11-02T19:29:06.706Z,12.66
2022-11-02T19:31:36.106Z,12.63
2022-11-02T19:34:04.046Z,12.57
2022-11-02T19:36:31.814Z,12.46
2022-11-02T19:39:00.116Z,12.43
2022-11-02T19:41:27.012Z,12.45
2022-11-02T19:43:53.817Z,12.29
2022-11-02T19:46:22.378Z,12.19
2022-11-02T19:48:49.914Z,12.09
2022-11-02T19:51:22.714Z,12.10
2022-11-02T19:53:58.297Z,12.10
2022-11-02T19:56:27.627Z,12.10
2022-11-02T19:58:55.403Z,12.16
2022-11-02T20:01:31.865Z,12.20
2022-11-02T20:03:58.888Z,12.13
2022-11-02T20:06:40.132Z,12.15
2022-11-02T20:09:14.416Z,12.09
2022-11-02T20:11:44.515Z,12.13
2022-11-02T20:14:13.573Z,12.00
2022-11-02T20:16:40.966Z,12.08
2022-11-02T20:19:08.975Z,12.08
2022-11-02T20:21:41.532Z,12.04
2022-11-02T20:24:10.762Z,12.09
2022-11-02T20:26:41.125Z,12.06
2022-11-02T20:29:10.909Z,12.10
2022-11-02T20:31:41.108Z,12.08
2022-11-02T20:34:08.987Z,12.10
2022-11-02T20:36:36.317Z,12.10
2022-11-02T20:39:04.779Z,12.12
2022-11-02T20:41:31.811Z,12.08
2022-11-02T20:43:58.885Z,12.02
2022-11-02T20:46:37.609Z,12.07
2022-11-02T20:49:29.003Z,12.13
2022-11-02T20:51:53.451Z,12.07
2022-11-02T20:54:22.119Z,12.02
2022-11-02T20:56:49.795Z,11.99
2022-11-02T20:59:17.104Z,11.96
2022-11-02T21:01:44.145Z,11.95
2022-11-02T21:04:15.234Z,11.97
2022-11-02T21:06:42.273Z,12.00
2022-11-02T21:09:11.999Z,11.88
2022-11-02T21:11:57.985Z,11.92
2022-11-02T21:14:25.277Z,11.92
2022-11-02T21:16:52.160Z,11.81
2022-11-02T21:19:19.033Z,11.58
2022-11-02T21:21:45.832Z,11.53
2022-11-02T21:24:12.735Z,11.69
2022-11-02T21:26:39.525Z,11.70
2022-11-02T21:29:06.409Z,11.66
2022-11-02T21:31:33.238Z,11.71
2022-11-02T21:34:00.142Z,11.62
2022-11-02T21:36:26.932Z,11.57
2022-11-02T21:38:53.870Z,11.48
2022-11-02T21:41:26.465Z,11.48
2022-11-02T21:43:55.423Z,11.52
2022-11-02T21:46:24.078Z,11.58
2022-11-02T21:48:51.024Z,11.62
2022-11-02T21:51:20.886Z,11.69
2022-11-02T21:53:50.022Z,11.50
2022-11-02T21:56:23.134Z,11.50
2022-11-02T21:58:49.994Z,11.65
2022-11-02T22:01:45.191Z,11.58
2022-11-02T22:04:32.759Z,11.71
2022-11-02T22:07:00.982Z,11.61
2022-11-02T22:09:28.723Z,11.64
2022-11-02T22:12:15.029Z,11.55
2022-11-02T22:14:43.913Z,11.31
2022-11-02T22:17:16.670Z,11.03
2022-11-02T22:19:55.640Z,10.99
2022-11-02T22:22:22.461Z,10.89
2022-11-02T22:24:49.305Z,10.87
2022-11-02T22:27:16.163Z,10.82
2022-11-02T22:29:42.995Z,10.80
2022-11-02T22:32:09.839Z,10.92
2022-11-02T22:34:36.689Z,10.77
2022-11-02T22:37:41.613Z,10.72
2022-11-02T22:40:09.120Z,10.60
2022-11-02T22:42:39.766Z,10.56
2022-11-02T22:45:09.683Z,10.62
2022-11-02T22:47:36.781Z,10.52
2022-11-02T22:50:04.036Z,10.47
2022-11-02T22:52:30.843Z,10.56
2022-11-02T22:54:57.615Z,10.59
2022-11-02T22:57:24.417Z,10.41
2022-11-02T22:59:51.210Z,10.42
2022-11-02T23:02:18.052Z,10.41
2022-11-02T23:04:44.864Z,10.40
2022-11-02T23:07:11.654Z,10.51
2022-11-02T23:09:38.445Z,10.68
2022-11-02T23:12:05.476Z,10.53
2022-11-02T23:14:32.274Z,10.42
2022-11-02T23:16:59.065Z,10.29
2022-11-02T23:19:28.658Z,10.33
2022-11-02T23:22:17.994Z,10.39
2022-11-02T23:25:08.106Z,10.22
2022-11-02T23:27:57.626Z,10.23
2022-11-02T23:30:49.536Z,10.07
2022-11-02T23:33:16.414Z,10.28
2022-11-02T23:36:02.338Z,10.00
2022-11-02T23:38:49.985Z,10.00
2022-11-02T23:41:18.193Z,10.09
2022-11-02T23:43:45.353Z,10.02
2022-11-02T23:46:12.237Z,10.08
2022-11-02T23:48:41.857Z,10.00
2022-11-02T23:51:28.851Z,10.01
2022-11-02T23:54:14.104Z,10.13
2022-11-02T23:56:43.676Z,10.08
2022-11-02T23:59:17.574Z,9.99
